sensor_id;sensor_type;location;lat;lon;timestamp;pressure;altitude;pressure_sealevel;temperature;humidity
7660;BME280;3872;47.902;8.162;2022-07-11T00:00:13;92605.25;;;10.31;100.00
7660;BME280;3872;47.902;8.162;2022-07-11T00:02:41;92606.81;;;10.37;100.00
7660;BME280;3872;47.902;8.162;2022-07-11T00:05:09;92610.63;;;10.21;100.00
7660;BME280;3872;47.902;8.162;2022-07-11T00:07:36;92606.09;;;10.27;100.00
7660;BME280;3872;47.902;8.162;2022-07-11T00:10:02;92606.06;;;10.32;100.00
7660;BME280;3872;47.902;8.162;2022-07-11T00:12:29;92595.31;;;10.23;100.00
7660;BME280;3872;47.902;8.162;2022-07-11T00:14:56;92590.94;;;10.08;100.00
7660;BME280;3872;47.902;8.162;2022-07-11T00:17:22;92596.69;;;10.15;100.00
7660;BME280;3872;47.902;8.162;2022-07-11T00:19:50;92593.91;;;9.92;100.00
7660;BME280;3872;47.902;8.162;2022-07-11T00:22:17;92590.78;;;9.90;100.00
7660;BME280;3872;47.902;8.162;2022-07-11T00:24:43;92586.88;;;9.82;100.00
7660;BME280;3872;47.902;8.162;2022-07-11T00:27:10;92597.91;;;9.84;100.00
7660;BME280;3872;47.902;8.162;2022-07-11T00:29:38;92588.34;;;9.98;100.00
7660;BME280;3872;47.902;8.162;2022-07-11T00:32:05;92591.78;;;9.99;100.00
7660;BME280;3872;47.902;8.162;2022-07-11T00:34:32;92582.34;;;9.93;100.00
7660;BME280;3872;47.902;8.162;2022-07-11T00:37:00;92586.56;;;9.89;100.00
7660;BME280;3872;47.902;8.162;2022-07-11T00:39:26;92587.16;;;9.75;100.00
7660;BME280;3872;47.902;8.162;2022-07-11T00:41:53;92587.47;;;9.69;100.00
7660;BME280;3872;47.902;8.162;2022-07-11T00:44:20;92586.69;;;9.68;100.00
7660;BME280;3872;47.902;8.162;2022-07-11T00:46:46;92575.66;;;9.61;100.00
7660;BME280;3872;47.902;8.162;2022-07-11T00:49:13;92576.97;;;9.64;100.00
7660;BME280;3872;47.902;8.162;2022-07-11T00:51:39;92576.00;;;9.50;100.00
7660;BME280;3872;47.902;8.162;2022-07-11T00:54:09;92571.03;;;9.43;100.00
7660;BME280;3872;47.902;8.162;2022-07-11T00:56:35;92570.81;;;9.24;100.00
7660;BME280;3872;47.902;8.162;2022-07-11T00:59:02;92568.78;;;9.16;100.00
7660;BME280;3872;47.902;8.162;2022-07-11T01:01:29;92575.25;;;9.34;100.00
7660;BME280;3872;47.902;8.162;2022-07-11T01:03:57;92572.41;;;9.25;100.00
7660;BME280;3872;47.902;8.162;2022-07-11T01:06:24;92564.28;;;9.22;100.00
7660;BME280;3872;47.902;8.162;2022-07-11T01:08:50;92565.41;;;8.95;100.00
7660;BME280;3872;47.902;8.162;2022-07-11T01:11:18;92568.06;;;8.85;100.00
7660;BME280;3872;47.902;8.162;2022-07-11T01:13:46;92563.09;;;8.63;100.00
7660;BME280;3872;47.902;8.162;2022-07-11T01:16:14;92563.13;;;8.58;100.00
7660;BME280;3872;47.902;8.162;2022-07-11T01:18:42;92569.66;;;8.71;100.00
7660;BME280;3872;47.902;8.162;2022-07-11T01:21:23;92568.59;;;8.77;100.00
7660;BME280;3872;47.902;8.162;2022-07-11T01:23:53;92566.50;;;8.79;100.00
7660;BME280;3872;47.902;8.162;2022-07-11T01:26:21;92561.53;;;8.73;100.00
7660;BME280;3872;47.902;8.162;2022-07-11T01:28:49;92563.09;;;8.79;100.00
7660;BME280;3872;47.902;8.162;2022-07-11T01:31:16;92562.56;;;8.72;100.00
7660;BME280;3872;47.902;8.162;2022-07-11T01:33:43;92563.09;;;8.69;100.00
7660;BME280;3872;47.902;8.162;2022-07-11T01:36:09;92563.63;;;8.81;100.00
7660;BME280;3872;47.902;8.162;2022-07-11T01:38:36;92559.94;;;8.72;100.00
7660;BME280;3872;47.902;8.162;2022-07-11T01:41:04;92559.44;;;8.59;100.00
7660;BME280;3872;47.902;8.162;2022-07-11T01:43:31;92558.34;;;8.76;100.00
7660;BME280;3872;47.902;8.162;2022-07-11T01:45:58;92547.59;;;8.87;100.00
7660;BME280;3872;47.902;8.162;2022-07-11T01:48:24;92548.63;;;8.86;100.00
7660;BME280;3872;47.902;8.162;2022-07-11T01:50:51;92547.03;;;8.95;100.00
7660;BME280;3872;47.902;8.162;2022-07-11T01:53:18;92547.84;;;8.86;100.00
7660;BME280;3872;47.902;8.162;2022-07-11T01:55:44;92544.72;;;8.79;100.00
7660;BME280;3872;47.902;8.162;2022-07-11T01:58:12;92547.34;;;8.74;100.00
7660;BME280;3872;47.902;8.162;2022-07-11T02:00:39;92541.34;;;8.48;100.00
7660;BME280;3872;47.902;8.162;2022-07-11T02:03:05;92547.34;;;8.79;100.00
7660;BME280;3872;47.902;8.162;2022-07-11T02:05:32;92539.97;;;8.86;100.00
7660;BME280;3872;47.902;8.162;2022-07-11T02:07:58;92533.16;;;8.80;100.00
7660;BME280;3872;47.902;8.162;2022-07-11T02:10:42;92538.13;;;8.81;100.00
7660;BME280;3872;47.902;8.162;2022-07-11T02:13:11;92542.56;;;8.96;100.00
7660;BME280;3872;47.902;8.162;2022-07-11T02:15:39;92531.56;;;8.89;100.00
7660;BME280;3872;47.902;8.162;2022-07-11T02:18:06;92533.91;;;9.00;100.00
7660;BME280;3872;47.902;8.162;2022-07-11T02:20:34;92536.81;;;8.94;100.00
7660;BME280;3872;47.902;8.162;2022-07-11T02:23:01;92540.78;;;8.71;100.00
7660;BME280;3872;47.902;8.162;2022-07-11T02:25:29;92530.03;;;8.68;100.00
7660;BME280;3872;47.902;8.162;2022-07-11T02:27:56;92539.50;;;8.74;100.00
7660;BME280;3872;47.902;8.162;2022-07-11T02:30:24;92531.88;;;8.62;100.00
7660;BME280;3872;47.902;8.162;2022-07-11T02:32:51;92533.75;;;8.46;100.00
7660;BME280;3872;47.902;8.162;2022-07-11T02:35:18;92530.59;;;8.34;100.00
7660;BME280;3872;47.902;8.162;2022-07-11T02:37:44;92532.94;;;8.25;100.00
7660;BME280;3872;47.902;8.162;2022-07-11T02:40:11;92532.69;;;8.17;100.00
7660;BME280;3872;47.902;8.162;2022-07-11T02:42:38;92530.31;;;8.20;100.00
7660;BME280;3872;47.902;8.162;2022-07-11T02:45:05;92538.44;;;8.19;100.00
7660;BME280;3872;47.902;8.162;2022-07-11T02:47:35;92532.16;;;8.15;100.00
7660;BME280;3872;47.902;8.162;2022-07-11T02:50:03;92532.41;;;8.03;100.00
7660;BME280;3872;47.902;8.162;2022-07-11T02:52:29;92529.78;;;7.93;100.00
7660;BME280;3872;47.902;8.162;2022-07-11T02:54:56;92526.66;;;8.11;100.00
7660;BME280;3872;47.902;8.162;2022-07-11T02:57:22;92526.13;;;7.94;100.00
7660;BME280;3872;47.902;8.162;2022-07-11T02:59:49;92531.34;;;7.79;100.00
7660;BME280;3872;47.902;8.162;2022-07-11T03:02:15;92540.78;;;7.80;100.00
7660;BME280;3872;47.902;8.162;2022-07-11T03:04:43;92532.16;;;7.79;100.00
7660;BME280;3872;47.902;8.162;2022-07-11T03:07:10;92532.13;;;7.84;100.00
7660;BME280;3872;47.902;8.162;2022-07-11T03:09:36;92523.78;;;7.88;100.00
7660;BME280;3872;47.902;8.162;2022-07-11T03:12:04;92518.47;;;7.67;100.00
7660;BME280;3872;47.902;8.162;2022-07-11T03:14:31;92525.84;;;7.70;100.00
7660;BME280;3872;47.902;8.162;2022-07-11T03:16:58;92531.59;;;7.62;100.00
7660;BME280;3872;47.902;8.162;2022-07-11T03:19:25;92528.72;;;7.84;100.00
7660;BME280;3872;47.902;8.162;2022-07-11T03:21:53;92533.69;;;7.75;100.00
7660;BME280;3872;47.902;8.162;2022-07-11T03:24:20;92537.88;;;7.76;100.00
7660;BME280;3872;47.902;8.162;2022-07-11T03:26:46;92537.88;;;7.76;100.00
7660;BME280;3872;47.902;8.162;2022-07-11T03:29:13;92533.44;;;7.72;100.00
7660;BME280;3872;47.902;8.162;2022-07-11T03:31:39;92532.94;;;8.00;100.00
7660;BME280;3872;47.902;8.162;2022-07-11T03:34:06;92531.13;;;7.96;100.00
7660;BME280;3872;47.902;8.162;2022-07-11T03:36:33;92533.16;;;7.63;100.00
7660;BME280;3872;47.902;8.162;2022-07-11T03:39:00;92533.94;;;7.64;100.00
7660;BME280;3872;47.902;8.162;2022-07-11T03:41:27;92532.91;;;7.65;100.00
7660;BME280;3872;47.902;8.162;2022-07-11T03:43:54;92528.41;;;7.45;100.00
7660;BME280;3872;47.902;8.162;2022-07-11T03:46:22;92533.00;;;7.13;100.00
7660;BME280;3872;47.902;8.162;2022-07-11T03:48:48;92526.75;;;7.19;100.00
7660;BME280;3872;47.902;8.162;2022-07-11T03:51:15;92529.09;;;7.10;100.00
7660;BME280;3872;47.902;8.162;2022-07-11T03:53:42;92519.19;;;7.22;100.00
7660;BME280;3872;47.902;8.162;2022-07-11T03:56:10;92530.75;;;7.31;100.00
7660;BME280;3872;47.902;8.162;2022-07-11T03:58:37;92533.31;;;7.26;100.00
7660;BME280;3872;47.902;8.162;2022-07-11T04:01:04;92523.38;;;7.28;100.00
7660;BME280;3872;47.902;8.162;2022-07-11T04:03:30;92510.28;;;7.28;100.00
7660;BME280;3872;47.902;8.162;2022-07-11T04:05:57;92520.47;;;7.15;100.00
7660;BME280;3872;47.902;8.162;2022-07-11T04:08:24;92516.25;;;7.14;100.00
7660;BME280;3872;47.902;8.162;2022-07-11T04:10:52;92511.56;;;7.16;100.00
7660;BME280;3872;47.902;8.162;2022-07-11T04:13:20;92509.50;;;7.23;100.00
7660;BME280;3872;47.902;8.162;2022-07-11T04:15:47;92511.88;;;7.39;100.00
7660;BME280;3872;47.902;8.162;2022-07-11T04:18:14;92505.84;;;7.34;100.00
7660;BME280;3872;47.902;8.162;2022-07-11T04:20:40;92518.69;;;7.30;100.00
7660;BME280;3872;47.902;8.162;2022-07-11T04:23:07;92519.22;;;7.37;100.00
7660;BME280;3872;47.902;8.162;2022-07-11T04:25:34;92516.56;;;7.32;100.00
7660;BME280;3872;47.902;8.162;2022-07-11T04:28:00;92519.22;;;7.37;100.00
7660;BME280;3872;47.902;8.162;2022-07-11T04:30:29;92514.53;;;7.44;100.00
7660;BME280;3872;47.902;8.162;2022-07-11T04:32:55;92523.97;;;7.61;100.00
7660;BME280;3872;47.902;8.162;2022-07-11T04:35:22;92524.00;;;7.66;100.00
7660;BME280;3872;47.902;8.162;2022-07-11T04:37:49;92522.69;;;7.63;100.00
7660;BME280;3872;47.902;8.162;2022-07-11T04:40:16;92525.84;;;7.70;100.00
7660;BME280;3872;47.902;8.162;2022-07-11T04:42:42;92521.66;;;7.84;100.00
7660;BME280;3872;47.902;8.162;2022-07-11T04:45:10;92518.78;;;7.91;100.00
7660;BME280;3872;47.902;8.162;2022-07-11T04:47:38;92515.66;;;7.94;100.00
7660;BME280;3872;47.902;8.162;2022-07-11T04:50:05;92516.69;;;7.98;100.00
7660;BME280;3872;47.902;8.162;2022-07-11T04:52:31;92522.47;;;8.15;100.00
7660;BME280;3872;47.902;8.162;2022-07-11T04:54:58;92525.34;;;8.39;100.00
7660;BME280;3872;47.902;8.162;2022-07-11T04:57:25;92528.22;;;8.48;100.00
7660;BME280;3872;47.902;8.162;2022-07-11T04:59:52;92526.34;;;8.79;100.00
7660;BME280;3872;47.902;8.162;2022-07-11T05:02:19;92525.06;;;8.71;100.00
7660;BME280;3872;47.902;8.162;2022-07-11T05:04:47;92527.09;;;8.94;100.00
7660;BME280;3872;47.902;8.162;2022-07-11T05:07:14;92531.00;;;9.02;100.00
7660;BME280;3872;47.902;8.162;2022-07-11T05:09:40;92527.19;;;9.33;100.00
7660;BME280;3872;47.902;8.162;2022-07-11T05:12:08;92529.31;;;9.36;100.00
7660;BME280;3872;47.902;8.162;2022-07-11T05:14:34;92526.31;;;9.58;100.00
7660;BME280;3872;47.902;8.162;2022-07-11T05:17:01;92526.97;;;9.79;100.00
7660;BME280;3872;47.902;8.162;2022-07-11T05:19:28;92531.19;;;10.14;100.00
7660;BME280;3872;47.902;8.162;2022-07-11T05:21:56;92528.44;;;10.34;100.00
7660;BME280;3872;47.902;8.162;2022-07-11T05:24:22;92523.38;;;10.43;100.00
7660;BME280;3872;47.902;8.162;2022-07-11T05:26:51;92529.41;;;10.43;100.00
7660;BME280;3872;47.902;8.162;2022-07-11T05:29:18;92526.50;;;10.74;100.00
7660;BME280;3872;47.902;8.162;2022-07-11T05:31:45;92525.16;;;10.76;100.00
7660;BME280;3872;47.902;8.162;2022-07-11T05:34:16;92526.78;;;10.96;100.00
7660;BME280;3872;47.902;8.162;2022-07-11T05:36:42;92525.41;;;11.27;100.00
7660;BME280;3872;47.902;8.162;2022-07-11T05:39:11;92532.19;;;11.33;100.00
7660;BME280;3872;47.902;8.162;2022-07-11T05:41:37;92529.13;;;11.45;100.00
7660;BME280;3872;47.902;8.162;2022-07-11T05:44:04;92517.38;;;11.99;100.00
7660;BME280;3872;47.902;8.162;2022-07-11T05:46:30;92519.00;;;12.13;100.00
7660;BME280;3872;47.902;8.162;2022-07-11T05:48:57;92523.22;;;12.14;100.00
7660;BME280;3872;47.902;8.162;2022-07-11T05:51:23;92519.13;;;12.41;100.00
7660;BME280;3872;47.902;8.162;2022-07-11T05:53:50;92516.25;;;12.70;100.00
7660;BME280;3872;47.902;8.162;2022-07-11T05:56:18;92518.00;;;12.61;100.00
7660;BME280;3872;47.902;8.162;2022-07-11T05:58:44;92520.75;;;12.69;100.00
7660;BME280;3872;47.902;8.162;2022-07-11T06:01:11;92516.56;;;12.82;100.00
7660;BME280;3872;47.902;8.162;2022-07-11T06:03:37;92517.34;;;12.82;100.00
7660;BME280;3872;47.902;8.162;2022-07-11T06:06:04;92510.91;;;13.02;100.00
7660;BME280;3872;47.902;8.162;2022-07-11T06:08:32;92517.19;;;12.92;100.00
7660;BME280;3872;47.902;8.162;2022-07-11T06:11:06;92514.88;;;13.18;100.00
7660;BME280;3872;47.902;8.162;2022-07-11T06:13:34;92510.94;;;13.29;100.00
7660;BME280;3872;47.902;8.162;2022-07-11T06:16:02;92509.66;;;13.54;100.00
7660;BME280;3872;47.902;8.162;2022-07-11T06:18:29;92501.03;;;13.62;100.00
7660;BME280;3872;47.902;8.162;2022-07-11T06:20:55;92505.00;;;13.87;100.00
7660;BME280;3872;47.902;8.162;2022-07-11T06:23:22;92499.19;;;13.99;100.00
7660;BME280;3872;47.902;8.162;2022-07-11T06:25:48;92503.69;;;14.34;100.00
7660;BME280;3872;47.902;8.162;2022-07-11T06:28:15;92507.47;;;14.64;100.00
7660;BME280;3872;47.902;8.162;2022-07-11T06:30:43;92507.91;;;14.58;100.00
7660;BME280;3872;47.902;8.162;2022-07-11T06:33:09;92504.75;;;14.78;100.00
7660;BME280;3872;47.902;8.162;2022-07-11T06:35:36;92511.66;;;14.87;100.00
7660;BME280;3872;47.902;8.162;2022-07-11T06:38:03;92499.19;;;14.88;100.00
7660;BME280;3872;47.902;8.162;2022-07-11T06:40:29;92502.78;;;14.92;100.00
7660;BME280;3872;47.902;8.162;2022-07-11T06:42:56;92502.75;;;15.14;100.00
7660;BME280;3872;47.902;8.162;2022-07-11T06:45:23;92509.25;;;15.08;100.00
7660;BME280;3872;47.902;8.162;2022-07-11T06:47:51;92507.06;;;15.50;100.00
7660;BME280;3872;47.902;8.162;2022-07-11T06:50:19;92507.81;;;15.33;100.00
7660;BME280;3872;47.902;8.162;2022-07-11T06:52:45;92507.22;;;15.45;100.00
7660;BME280;3872;47.902;8.162;2022-07-11T06:55:12;92514.50;;;15.61;100.00
7660;BME280;3872;47.902;8.162;2022-07-11T06:57:39;92515.28;;;15.31;100.00
7660;BME280;3872;47.902;8.162;2022-07-11T07:00:07;92510.13;;;15.65;100.00
7660;BME280;3872;47.902;8.162;2022-07-11T07:02:34;92503.25;;;15.56;100.00
7660;BME280;3872;47.902;8.162;2022-07-11T07:05:02;92505.31;;;15.76;100.00
7660;BME280;3872;47.902;8.162;2022-07-11T07:07:29;92498.47;;;16.01;100.00
7660;BME280;3872;47.902;8.162;2022-07-11T07:09:57;92503.31;;;16.08;100.00
7660;BME280;3872;47.902;8.162;2022-07-11T07:12:23;92499.25;;;16.10;100.00
7660;BME280;3872;47.902;8.162;2022-07-11T07:14:50;92515.94;;;15.93;100.00
7660;BME280;3872;47.902;8.162;2022-07-11T07:17:16;92507.69;;;16.21;100.00
7660;BME280;3872;47.902;8.162;2022-07-11T07:19:44;92507.69;;;16.12;100.00
7660;BME280;3872;47.902;8.162;2022-07-11T07:22:12;92512.22;;;16.20;100.00
7660;BME280;3872;47.902;8.162;2022-07-11T07:24:41;92511.75;;;16.44;100.00
7660;BME280;3872;47.902;8.162;2022-07-11T07:27:08;92495.03;;;16.35;100.00
7660;BME280;3872;47.902;8.162;2022-07-11T07:29:34;92510.50;;;16.41;100.00
7660;BME280;3872;47.902;8.162;2022-07-11T07:32:01;92515.66;;;16.72;100.00
7660;BME280;3872;47.902;8.162;2022-07-11T07:34:28;92519.41;;;16.63;100.00
7660;BME280;3872;47.902;8.162;2022-07-11T07:36:54;92518.47;;;16.67;100.00
7660;BME280;3872;47.902;8.162;2022-07-11T07:39:22;92519.09;;;16.73;100.00
7660;BME280;3872;47.902;8.162;2022-07-11T07:41:49;92509.06;;;16.78;100.00
7660;BME280;3872;47.902;8.162;2022-07-11T07:44:16;92516.84;;;17.01;100.00
7660;BME280;3872;47.902;8.162;2022-07-11T07:46:42;92522.53;;;16.73;100.00
7660;BME280;3872;47.902;8.162;2022-07-11T07:49:09;92514.84;;;16.98;100.00
7660;BME280;3872;47.902;8.162;2022-07-11T07:51:36;92514.16;;;17.18;100.00
7660;BME280;3872;47.902;8.162;2022-07-11T07:54:03;92519.06;;;17.45;100.00
7660;BME280;3872;47.902;8.162;2022-07-11T07:56:31;92517.75;;;17.51;100.00
7660;BME280;3872;47.902;8.162;2022-07-11T07:58:58;92509.59;;;17.56;100.00
7660;BME280;3872;47.902;8.162;2022-07-11T08:01:24;92512.56;;;17.93;100.00
7660;BME280;3872;47.902;8.162;2022-07-11T08:04:07;92507.22;;;17.93;95.45
7660;BME280;3872;47.902;8.162;2022-07-11T08:06:35;92505.16;;;17.98;95.40
7660;BME280;3872;47.902;8.162;2022-07-11T08:09:03;92505.31;;;18.02;91.52
7660;BME280;3872;47.902;8.162;2022-07-11T08:11:32;92506.66;;;18.08;85.61
7660;BME280;3872;47.902;8.162;2022-07-11T08:13:59;92508.78;;;17.94;82.07
7660;BME280;3872;47.902;8.162;2022-07-11T08:16:26;92503.63;;;18.39;80.52
7660;BME280;3872;47.902;8.162;2022-07-11T08:18:55;92508.59;;;18.40;82.09
7660;BME280;3872;47.902;8.162;2022-07-11T08:21:22;92510.63;;;18.44;83.54
7660;BME280;3872;47.902;8.162;2022-07-11T08:23:49;92506.97;;;18.69;79.66
7660;BME280;3872;47.902;8.162;2022-07-11T08:26:15;92500.03;;;18.35;83.71
7660;BME280;3872;47.902;8.162;2022-07-11T08:28:43;92500.69;;;18.53;81.19
7660;BME280;3872;47.902;8.162;2022-07-11T08:31:10;92494.75;;;19.01;79.23
7660;BME280;3872;47.902;8.162;2022-07-11T08:33:36;92494.00;;;18.67;79.74
7660;BME280;3872;47.902;8.162;2022-07-11T08:36:04;92499.34;;;18.67;77.17
7660;BME280;3872;47.902;8.162;2022-07-11T08:38:31;92495.72;;;18.84;79.31
7660;BME280;3872;47.902;8.162;2022-07-11T08:40:58;92497.78;;;19.11;73.56
7660;BME280;3872;47.902;8.162;2022-07-11T08:43:27;92494.22;;;19.07;76.15
7660;BME280;3872;47.902;8.162;2022-07-11T08:46:03;92497.03;;;19.11;75.74
7660;BME280;3872;47.902;8.162;2022-07-11T08:48:31;92494.84;;;19.62;74.98
7660;BME280;3872;47.902;8.162;2022-07-11T08:50:59;92505.75;;;18.99;78.07
7660;BME280;3872;47.902;8.162;2022-07-11T08:53:26;92490.53;;;19.81;70.52
7660;BME280;3872;47.902;8.162;2022-07-11T08:55:54;92492.31;;;19.77;68.33
7660;BME280;3872;47.902;8.162;2022-07-11T08:58:22;92492.41;;;19.57;72.51
7660;BME280;3872;47.902;8.162;2022-07-11T09:00:49;92494.53;;;19.63;73.35
7660;BME280;3872;47.902;8.162;2022-07-11T09:03:18;92490.19;;;19.83;72.92
7660;BME280;3872;47.902;8.162;2022-07-11T09:05:46;92491.28;;;19.94;68.79
7660;BME280;3872;47.902;8.162;2022-07-11T09:08:12;92483.72;;;19.84;70.91
7660;BME280;3872;47.902;8.162;2022-07-11T09:10:40;92487.94;;;19.97;67.67
7660;BME280;3872;47.902;8.162;2022-07-11T09:13:10;92491.81;;;20.12;71.31
7660;BME280;3872;47.902;8.162;2022-07-11T09:15:38;92488.34;;;20.63;64.40
7660;BME280;3872;47.902;8.162;2022-07-11T09:18:36;92485.59;;;20.60;67.54
7660;BME280;3872;47.902;8.162;2022-07-11T09:21:04;92476.44;;;21.17;63.01
7660;BME280;3872;47.902;8.162;2022-07-11T09:23:50;92479.84;;;21.01;64.68
7660;BME280;3872;47.902;8.162;2022-07-11T09:26:36;92484.75;;;20.44;65.57
7660;BME280;3872;47.902;8.162;2022-07-11T09:29:05;92486.59;;;20.15;69.72
7660;BME280;3872;47.902;8.162;2022-07-11T09:31:34;92489.03;;;20.60;64.90
7660;BME280;3872;47.902;8.162;2022-07-11T09:34:09;92490.19;;;21.03;68.66
7660;BME280;3872;47.902;8.162;2022-07-11T09:36:42;92491.81;;;21.35;65.15
7660;BME280;3872;47.902;8.162;2022-07-11T09:39:10;92487.91;;;20.89;64.30
7660;BME280;3872;47.902;8.162;2022-07-11T09:41:38;92493.81;;;20.95;66.37
7660;BME280;3872;47.902;8.162;2022-07-11T09:44:10;92486.16;;;21.09;59.57
7660;BME280;3872;47.902;8.162;2022-07-11T09:46:37;92483.25;;;21.30;56.62
7660;BME280;3872;47.902;8.162;2022-07-11T09:49:06;92480.06;;;21.24;60.39
7660;BME280;3872;47.902;8.162;2022-07-11T09:51:33;92467.88;;;21.74;59.36
7660;BME280;3872;47.902;8.162;2022-07-11T09:54:00;92466.91;;;21.98;65.90
7660;BME280;3872;47.902;8.162;2022-07-11T09:56:33;92482.28;;;22.01;63.95
7660;BME280;3872;47.902;8.162;2022-07-11T09:59:02;92479.03;;;22.26;57.65
7660;BME280;3872;47.902;8.162;2022-07-11T10:01:30;92474.38;;;21.41;57.18
7660;BME280;3872;47.902;8.162;2022-07-11T10:03:57;92470.44;;;21.86;54.49
7660;BME280;3872;47.902;8.162;2022-07-11T10:06:25;92475.19;;;22.08;58.21
7660;BME280;3872;47.902;8.162;2022-07-11T10:08:54;92470.28;;;22.30;60.78
7660;BME280;3872;47.902;8.162;2022-07-11T10:11:21;92468.19;;;22.96;56.45
7660;BME280;3872;47.902;8.162;2022-07-11T10:13:47;92475.75;;;22.72;57.02
7660;BME280;3872;47.902;8.162;2022-07-11T10:19:11;92476.28;;;22.23;57.46
7660;BME280;3872;47.902;8.162;2022-07-11T10:21:45;92480.97;;;23.26;55.55
7660;BME280;3872;47.902;8.162;2022-07-11T10:24:24;92473.22;;;23.21;55.21
7660;BME280;3872;47.902;8.162;2022-07-11T10:26:59;92485.47;;;23.41;54.86
7660;BME280;3872;47.902;8.162;2022-07-11T10:29:31;92477.72;;;22.01;52.63
7660;BME280;3872;47.902;8.162;2022-07-11T10:32:09;92476.09;;;22.51;51.96
7660;BME280;3872;47.902;8.162;2022-07-11T10:34:36;92474.31;;;23.85;50.77
7660;BME280;3872;47.902;8.162;2022-07-11T10:37:05;92476.72;;;23.02;54.27
7660;BME280;3872;47.902;8.162;2022-07-11T10:39:33;92466.81;;;23.97;50.69
7660;BME280;3872;47.902;8.162;2022-07-11T10:42:01;92461.84;;;24.85;48.09
7660;BME280;3872;47.902;8.162;2022-07-11T10:44:46;92465.25;;;24.79;45.82
7660;BME280;3872;47.902;8.162;2022-07-11T10:47:31;92474.06;;;23.25;47.87
7660;BME280;3872;47.902;8.162;2022-07-11T10:50:03;92476.91;;;23.55;48.63
7660;BME280;3872;47.902;8.162;2022-07-11T10:52:34;92485.47;;;22.60;50.73
7660;BME280;3872;47.902;8.162;2022-07-11T10:55:13;92481.31;;;23.43;50.20
7660;BME280;3872;47.902;8.162;2022-07-11T10:57:48;92478.34;;;22.30;51.94
7660;BME280;3872;47.902;8.162;2022-07-11T11:00:20;92471.50;;;22.90;48.83
7660;BME280;3872;47.902;8.162;2022-07-11T11:03:00;92485.81;;;23.39;47.48
7660;BME280;3872;47.902;8.162;2022-07-11T11:05:40;92477.22;;;23.08;50.28
7660;BME280;3872;47.902;8.162;2022-07-11T11:11:35;92478.25;;;24.43;45.63
7660;BME280;3872;47.902;8.162;2022-07-11T11:14:25;92474.78;;;24.16;46.30
7660;BME280;3872;47.902;8.162;2022-07-11T11:16:53;92479.91;;;23.99;46.35
7660;BME280;3872;47.902;8.162;2022-07-11T11:19:54;92471.63;;;24.11;46.72
7660;BME280;3872;47.902;8.162;2022-07-11T11:22:22;92472.59;;;23.73;47.87
7660;BME280;3872;47.902;8.162;2022-07-11T11:24:51;92462.94;;;24.81;43.39
7660;BME280;3872;47.902;8.162;2022-07-11T11:27:20;92453.47;;;25.68;45.99
7660;BME280;3872;47.902;8.162;2022-07-11T11:29:51;92453.72;;;26.65;42.76
7660;BME280;3872;47.902;8.162;2022-07-11T11:32:19;92450.13;;;25.41;44.79
7660;BME280;3872;47.902;8.162;2022-07-11T11:34:46;92454.09;;;24.80;44.76
7660;BME280;3872;47.902;8.162;2022-07-11T11:37:15;92448.78;;;26.16;45.34
7660;BME280;3872;47.902;8.162;2022-07-11T11:39:41;92451.84;;;26.76;41.96
7660;BME280;3872;47.902;8.162;2022-07-11T11:42:11;92453.16;;;27.21;41.23
7660;BME280;3872;47.902;8.162;2022-07-11T11:44:56;92450.91;;;27.48;39.68
7660;BME280;3872;47.902;8.162;2022-07-11T11:47:24;92444.16;;;26.89;40.85
7660;BME280;3872;47.902;8.162;2022-07-11T11:49:51;92448.63;;;27.61;41.48
7660;BME280;3872;47.902;8.162;2022-07-11T11:52:19;92451.16;;;27.01;41.67
7660;BME280;3872;47.902;8.162;2022-07-11T11:54:53;92440.66;;;26.71;42.60
7660;BME280;3872;47.902;8.162;2022-07-11T11:57:22;92457.94;;;25.53;45.57
7660;BME280;3872;47.902;8.162;2022-07-11T11:59:49;92454.69;;;24.63;47.29
7660;BME280;3872;47.902;8.162;2022-07-11T12:02:28;92452.53;;;25.97;42.46
7660;BME280;3872;47.902;8.162;2022-07-11T12:04:56;92451.34;;;26.49;46.38
7660;BME280;3872;47.902;8.162;2022-07-11T12:07:28;92445.06;;;27.32;41.32
7660;BME280;3872;47.902;8.162;2022-07-11T12:09:56;92448.94;;;26.37;46.14
7660;BME280;3872;47.902;8.162;2022-07-11T12:12:26;92441.41;;;26.02;47.29
7660;BME280;3872;47.902;8.162;2022-07-11T12:15:28;92447.75;;;25.77;47.08
7660;BME280;3872;47.902;8.162;2022-07-11T12:18:01;92440.53;;;25.88;46.67
7660;BME280;3872;47.902;8.162;2022-07-11T12:20:42;92447.75;;;25.77;44.71
7660;BME280;3872;47.902;8.162;2022-07-11T12:23:12;92441.66;;;26.41;44.15
7660;BME280;3872;47.902;8.162;2022-07-11T12:25:39;92441.31;;;26.54;43.55
7660;BME280;3872;47.902;8.162;2022-07-11T12:28:12;92435.41;;;27.20;40.59
7660;BME280;3872;47.902;8.162;2022-07-11T12:30:39;92446.41;;;26.00;41.92
7660;BME280;3872;47.902;8.162;2022-07-11T12:33:09;92440.00;;;27.02;41.77
7660;BME280;3872;47.902;8.162;2022-07-11T12:35:36;92444.88;;;26.79;39.50
7660;BME280;3872;47.902;8.162;2022-07-11T12:38:18;92440.78;;;26.99;40.18
7660;BME280;3872;47.902;8.162;2022-07-11T12:40:58;92443.19;;;28.32;38.11
7660;BME280;3872;47.902;8.162;2022-07-11T12:43:38;92438.84;;;28.63;37.47
7660;BME280;3872;47.902;8.162;2022-07-11T12:46:22;92428.53;;;29.24;37.66
7660;BME280;3872;47.902;8.162;2022-07-11T12:48:51;92428.84;;;27.18;37.08
7660;BME280;3872;47.902;8.162;2022-07-11T12:51:26;92427.59;;;28.64;37.34
7660;BME280;3872;47.902;8.162;2022-07-11T12:54:01;92429.31;;;27.70;37.94
7660;BME280;3872;47.902;8.162;2022-07-11T12:56:28;92424.00;;;28.99;37.07
7660;BME280;3872;47.902;8.162;2022-07-11T12:58:54;92418.00;;;29.95;32.82
7660;BME280;3872;47.902;8.162;2022-07-11T13:01:21;92425.22;;;26.02;38.43
7660;BME280;3872;47.902;8.162;2022-07-11T13:03:47;92412.50;;;28.74;34.96
7660;BME280;3872;47.902;8.162;2022-07-11T13:06:16;92411.59;;;29.68;35.85
7660;BME280;3872;47.902;8.162;2022-07-11T13:09:03;92413.88;;;29.10;35.95
7660;BME280;3872;47.902;8.162;2022-07-11T13:11:28;92424.69;;;27.70;37.22
7660;BME280;3872;47.902;8.162;2022-07-11T13:13:56;92423.00;;;28.58;35.82
7660;BME280;3872;47.902;8.162;2022-07-11T13:16:23;92409.25;;;29.07;35.30
7660;BME280;3872;47.902;8.162;2022-07-11T13:18:50;92408.97;;;29.57;34.71
7660;BME280;3872;47.902;8.162;2022-07-11T13:21:18;92408.78;;;30.64;32.66
7660;BME280;3872;47.902;8.162;2022-07-11T13:23:45;92412.59;;;29.88;32.95
7660;BME280;3872;47.902;8.162;2022-07-11T13:26:12;92427.69;;;28.36;33.65
7660;BME280;3872;47.902;8.162;2022-07-11T13:28:39;92406.75;;;30.71;30.76
7660;BME280;3872;47.902;8.162;2022-07-11T13:31:06;92417.13;;;28.84;34.82
7660;BME280;3872;47.902;8.162;2022-07-11T13:33:34;92409.78;;;28.85;33.34